sensor_id;sensor_type;location;lat;lon;timestamp;pressure;altitude;pressure_sealevel;temperature;humidity
50977;BME280;36992;48.200;12.418;2023-04-28T00:01:09;96748.47;;;14.25;43.27
50977;BME280;36992;48.200;12.418;2023-04-28T00:03:35;96752.59;;;14.22;42.90
50977;BME280;36992;48.200;12.418;2023-04-28T00:06:02;96747.03;;;14.19;43.06
50977;BME280;36992;48.200;12.418;2023-04-28T00:08:28;96748.16;;;14.18;43.09
50977;BME280;36992;48.200;12.418;2023-04-28T00:10:55;96748.28;;;14.12;43.14
50977;BME280;36992;48.200;12.418;2023-04-28T00:13:22;96746.69;;;14.11;43.39
50977;BME280;36992;48.200;12.418;2023-04-28T00:15:49;96746.81;;;14.06;43.42
50977;BME280;36992;48.200;12.418;2023-04-28T00:18:17;96739.34;;;14.03;43.71
50977;BME280;36992;48.200;12.418;2023-04-28T00:20:43;96730.72;;;14.01;43.96
50977;BME280;36992;48.200;12.418;2023-04-28T00:23:09;96735.34;;;14.00;43.76
50977;BME280;36992;48.200;12.418;2023-04-28T00:25:36;96738.38;;;13.99;43.80
50977;BME280;36992;48.200;12.418;2023-04-28T00:28:02;96731.34;;;13.98;44.16
50977;BME280;36992;48.200;12.418;2023-04-28T00:30:30;96732.94;;;13.99;43.84
50977;BME280;36992;48.200;12.418;2023-04-28T00:32:57;96735.19;;;13.97;44.05
50977;BME280;36992;48.200;12.418;2023-04-28T00:35:23;96725.94;;;13.98;44.02
50977;BME280;36992;48.200;12.418;2023-04-28T00:37:50;96724.34;;;13.97;44.02
50977;BME280;36992;48.200;12.418;2023-04-28T00:40:16;96728.97;;;13.96;43.85
50977;BME280;36992;48.200;12.418;2023-04-28T00:42:42;96722.75;;;13.96;43.72
50977;BME280;36992;48.200;12.418;2023-04-28T00:45:09;96718.44;;;13.95;43.54
50977;BME280;36992;48.200;12.418;2023-04-28T00:47:37;96719.56;;;13.94;43.81
50977;BME280;36992;48.200;12.418;2023-04-28T00:50:04;96721.78;;;13.92;44.08
50977;BME280;36992;48.200;12.418;2023-04-28T00:52:31;96722.91;;;13.91;43.94
50977;BME280;36992;48.200;12.418;2023-04-28T00:54:58;96718.09;;;13.87;43.77
50977;BME280;36992;48.200;12.418;2023-04-28T00:57:24;96717.63;;;13.85;44.04
50977;BME280;36992;48.200;12.418;2023-04-28T00:59:51;96711.72;;;13.83;44.30
50977;BME280;36992;48.200;12.418;2023-04-28T01:02:17;96705.81;;;13.81;44.24
50977;BME280;36992;48.200;12.418;2023-04-28T01:04:45;96708.03;;;13.79;43.91
50977;BME280;36992;48.200;12.418;2023-04-28T01:07:12;96710.28;;;13.77;43.99
50977;BME280;36992;48.200;12.418;2023-04-28T01:09:38;96700.06;;;13.74;43.94
50977;BME280;36992;48.200;12.418;2023-04-28T01:12:05;96698.47;;;13.73;44.16
50977;BME280;36992;48.200;12.418;2023-04-28T01:14:32;96699.06;;;13.70;44.14
50977;BME280;36992;48.200;12.418;2023-04-28T01:16:59;96708.31;;;13.69;44.33
50977;BME280;36992;48.200;12.418;2023-04-28T01:19:26;96698.13;;;13.66;44.40
50977;BME280;36992;48.200;12.418;2023-04-28T01:21:55;96699.72;;;13.67;44.09
50977;BME280;36992;48.200;12.418;2023-04-28T01:24:23;96691.13;;;13.65;44.25
50977;BME280;36992;48.200;12.418;2023-04-28T01:26:49;96692.53;;;13.62;44.73
50977;BME280;36992;48.200;12.418;2023-04-28T01:29:16;96693.97;;;13.59;44.61
50977;BME280;36992;48.200;12.418;2023-04-28T01:31:42;96693.44;;;13.57;44.32
50977;BME280;36992;48.200;12.418;2023-04-28T01:34:08;96686.44;;;13.56;44.62
50977;BME280;36992;48.200;12.418;2023-04-28T01:36:35;96686.78;;;13.55;44.53
50977;BME280;36992;48.200;12.418;2023-04-28T01:39:01;96681.69;;;13.53;44.67
50977;BME280;36992;48.200;12.418;2023-04-28T01:41:29;96685.97;;;13.54;44.08
50977;BME280;36992;48.200;12.418;2023-04-28T01:43:58;96684.69;;;13.52;44.40
50977;BME280;36992;48.200;12.418;2023-04-28T01:46:25;96679.56;;;13.50;44.35
50977;BME280;36992;48.200;12.418;2023-04-28T01:48:51;96686.09;;;13.49;44.32
50977;BME280;36992;48.200;12.418;2023-04-28T01:51:17;96688.03;;;13.48;44.52
50977;BME280;36992;48.200;12.418;2023-04-28T01:53:44;96696.44;;;13.47;44.38
50977;BME280;36992;48.200;12.418;2023-04-28T01:56:10;96689.44;;;13.46;44.61
50977;BME280;36992;48.200;12.418;2023-04-28T01:58:38;96691.03;;;13.47;44.43
50977;BME280;36992;48.200;12.418;2023-04-28T02:01:04;96678.91;;;13.44;44.45
50977;BME280;36992;48.200;12.418;2023-04-28T02:03:31;96685.44;;;13.43;44.58
50977;BME280;36992;48.200;12.418;2023-04-28T02:05:58;96691.13;;;13.42;44.63
50977;BME280;36992;48.200;12.418;2023-04-28T02:08:24;96686.03;;;13.40;44.61
50977;BME280;36992;48.200;12.418;2023-04-28T02:10:50;96694.44;;;13.39;44.58
50977;BME280;36992;48.200;12.418;2023-04-28T02:13:17;96688.56;;;13.36;44.73
50977;BME280;36992;48.200;12.418;2023-04-28T02:15:45;96692.38;;;13.35;44.79
50977;BME280;36992;48.200;12.418;2023-04-28T02:18:11;96694.59;;;13.33;44.76
50977;BME280;36992;48.200;12.418;2023-04-28T02:20:38;96696.50;;;13.33;45.00
50977;BME280;36992;48.200;12.418;2023-04-28T02:23:05;96691.41;;;13.31;44.88
50977;BME280;36992;48.200;12.418;2023-04-28T02:25:31;96687.91;;;13.31;44.75
50977;BME280;36992;48.200;12.418;2023-04-28T02:27:58;96694.75;;;13.28;44.89
50977;BME280;36992;48.200;12.418;2023-04-28T02:30:24;96695.84;;;13.27;45.17
50977;BME280;36992;48.200;12.418;2023-04-28T02:32:52;96692.03;;;13.28;45.01
50977;BME280;36992;48.200;12.418;2023-04-28T02:35:18;96686.16;;;13.26;44.98
50977;BME280;36992;48.200;12.418;2023-04-28T02:37:45;96695.03;;;13.27;44.69
50977;BME280;36992;48.200;12.418;2023-04-28T02:40:12;96680.72;;;13.26;44.85
50977;BME280;36992;48.200;12.418;2023-04-28T02:42:38;96672.09;;;13.24;45.06
50977;BME280;36992;48.200;12.418;2023-04-28T02:45:06;96682.94;;;13.24;44.90
50977;BME280;36992;48.200;12.418;2023-04-28T02:47:32;96675.94;;;13.23;44.93
50977;BME280;36992;48.200;12.418;2023-04-28T02:50:00;96672.09;;;13.24;45.15
50977;BME280;36992;48.200;12.418;2023-04-28T02:52:27;96667.34;;;13.21;45.28
50977;BME280;36992;48.200;12.418;2023-04-28T02:54:54;96660.34;;;13.20;45.38
50977;BME280;36992;48.200;12.418;2023-04-28T02:57:22;96664.13;;;13.19;45.24
50977;BME280;36992;48.200;12.418;2023-04-28T02:59:48;96659.03;;;13.17;45.05
50977;BME280;36992;48.200;12.418;2023-04-28T03:02:15;96671.75;;;13.17;45.11
50977;BME280;36992;48.200;12.418;2023-04-28T03:04:41;96657.75;;;13.15;45.30
50977;BME280;36992;48.200;12.418;2023-04-28T03:07:09;96652.34;;;13.15;45.17
50977;BME280;36992;48.200;12.418;2023-04-28T03:09:35;96652.94;;;13.12;45.43
50977;BME280;36992;48.200;12.418;2023-04-28T03:12:02;96657.59;;;13.11;45.31
50977;BME280;36992;48.200;12.418;2023-04-28T03:14:29;96664.41;;;13.08;45.42
50977;BME280;36992;48.200;12.418;2023-04-28T03:16:55;96654.69;;;13.07;45.47
50977;BME280;36992;48.200;12.418;2023-04-28T03:19:22;96649.28;;;13.07;45.47
50977;BME280;36992;48.200;12.418;2023-04-28T03:21:48;96653.09;;;13.06;45.41
50977;BME280;36992;48.200;12.418;2023-04-28T03:24:16;96650.38;;;13.06;45.38
50977;BME280;36992;48.200;12.418;2023-04-28T03:26:42;96653.41;;;13.05;45.64
50977;BME280;36992;48.200;12.418;2023-04-28T03:29:09;96651.78;;;13.04;45.59
50977;BME280;36992;48.200;12.418;2023-04-28T03:31:35;96651.00;;;13.03;45.85
50977;BME280;36992;48.200;12.418;2023-04-28T03:34:02;96651.00;;;13.03;45.77
50977;BME280;36992;48.200;12.418;2023-04-28T03:36:28;96649.41;;;13.02;45.97
50977;BME280;36992;48.200;12.418;2023-04-28T03:38:55;96649.41;;;13.02;46.05
50977;BME280;36992;48.200;12.418;2023-04-28T03:41:22;96645.59;;;13.03;45.63
50977;BME280;36992;48.200;12.418;2023-04-28T03:43:49;96650.53;;;13.01;45.98
50977;BME280;36992;48.200;12.418;2023-04-28T03:46:16;96651.63;;;13.00;45.82
50977;BME280;36992;48.200;12.418;2023-04-28T03:48:42;96651.63;;;13.00;45.91
50977;BME280;36992;48.200;12.418;2023-04-28T03:51:10;96650.84;;;13.00;46.02
50977;BME280;36992;48.200;12.418;2023-04-28T03:53:36;96654.66;;;12.99;45.94
50977;BME280;36992;48.200;12.418;2023-04-28T03:56:03;96648.44;;;12.98;46.14
50977;BME280;36992;48.200;12.418;2023-04-28T03:58:31;96643.03;;;12.98;45.89
50977;BME280;36992;48.200;12.418;2023-04-28T04:00:58;96645.25;;;12.96;46.23
50977;BME280;36992;48.200;12.418;2023-04-28T04:03:25;96651.44;;;12.97;46.25
50977;BME280;36992;48.200;12.418;2023-04-28T04:05:51;96639.84;;;12.96;46.29
50977;BME280;36992;48.200;12.418;2023-04-28T04:08:19;96641.44;;;12.97;46.23
50977;BME280;36992;48.200;12.418;2023-04-28T04:10:46;96638.72;;;12.97;46.42
50977;BME280;36992;48.200;12.418;2023-04-28T04:13:12;96641.44;;;12.97;46.00
50977;BME280;36992;48.200;12.418;2023-04-28T04:15:40;96647.44;;;12.94;45.84
50977;BME280;36992;48.200;12.418;2023-04-28T04:18:06;96643.28;;;12.88;46.10
50977;BME280;36992;48.200;12.418;2023-04-28T04:20:33;96637.19;;;12.82;46.50
50977;BME280;36992;48.200;12.418;2023-04-28T04:22:59;96635.91;;;12.79;46.66
50977;BME280;36992;48.200;12.418;2023-04-28T04:25:27;96623.81;;;12.77;47.20
50977;BME280;36992;48.200;12.418;2023-04-28T04:27:54;96629.50;;;12.75;47.34
50977;BME280;36992;48.200;12.418;2023-04-28T04:30:20;96632.56;;;12.74;47.44
50977;BME280;36992;48.200;12.418;2023-04-28T04:32:48;96642.56;;;12.73;47.26
50977;BME280;36992;48.200;12.418;2023-04-28T04:35:15;96636.97;;;12.70;47.54
50977;BME280;36992;48.200;12.418;2023-04-28T04:37:41;96621.84;;;12.68;48.20
50977;BME280;36992;48.200;12.418;2023-04-28T04:40:09;96625.34;;;12.69;47.84
50977;BME280;36992;48.200;12.418;2023-04-28T04:42:35;96639.38;;;12.71;48.65
50977;BME280;36992;48.200;12.418;2023-04-28T04:45:01;96634.75;;;12.72;47.54
50977;BME280;36992;48.200;12.418;2023-04-28T04:47:28;96636.03;;;12.74;48.26
50977;BME280;36992;48.200;12.418;2023-04-28T04:49:56;96647.84;;;12.78;48.37
50977;BME280;36992;48.200;12.418;2023-04-28T04:52:22;96638.13;;;12.77;47.99
50977;BME280;36992;48.200;12.418;2023-04-28T04:54:49;96635.09;;;12.79;48.54
50977;BME280;36992;48.200;12.418;2023-04-28T04:57:15;96635.63;;;12.81;48.13
50977;BME280;36992;48.200;12.418;2023-04-28T04:59:42;96632.91;;;12.81;48.88
50977;BME280;36992;48.200;12.418;2023-04-28T05:02:08;96635.31;;;12.82;48.53
50977;BME280;36992;48.200;12.418;2023-04-28T05:04:35;96621.28;;;12.80;48.53
50977;BME280;36992;48.200;12.418;2023-04-28T05:07:03;96629.91;;;12.82;48.88
50977;BME280;36992;48.200;12.418;2023-04-28T05:09:29;96633.69;;;12.81;48.80
50977;BME280;36992;48.200;12.418;2023-04-28T05:11:56;96644.50;;;12.81;48.70
50977;BME280;36992;48.200;12.418;2023-04-28T05:14:22;96633.22;;;12.79;48.01
50977;BME280;36992;48.200;12.418;2023-04-28T05:16:49;96630.03;;;12.77;48.64
50977;BME280;36992;48.200;12.418;2023-04-28T05:19:16;96613.81;;;12.77;48.69
50977;BME280;36992;48.200;12.418;2023-04-28T05:21:43;96617.63;;;12.76;49.09
50977;BME280;36992;48.200;12.418;2023-04-28T05:24:13;96611.09;;;12.77;48.92
50977;BME280;36992;48.200;12.418;2023-04-28T05:26:39;96605.19;;;12.75;49.41
50977;BME280;36992;48.200;12.418;2023-04-28T05:29:06;96605.19;;;12.75;49.03
50977;BME280;36992;48.200;12.418;2023-04-28T05:31:32;96615.53;;;12.73;48.73
50977;BME280;36992;48.200;12.418;2023-04-28T05:33:59;96610.75;;;12.70;48.93
50977;BME280;36992;48.200;12.418;2023-04-28T05:36:25;96601.84;;;12.70;49.58
50977;BME280;36992;48.200;12.418;2023-04-28T05:38:52;96605.34;;;12.70;49.48
50977;BME280;36992;48.200;12.418;2023-04-28T05:41:20;96608.53;;;12.72;49.36
50977;BME280;36992;48.200;12.418;2023-04-28T05:43:46;96613.94;;;12.72;49.61
50977;BME280;36992;48.200;12.418;2023-04-28T05:46:15;96613.31;;;12.75;50.01
50977;BME280;36992;48.200;12.418;2023-04-28T05:48:42;96604.88;;;12.77;49.41
50977;BME280;36992;48.200;12.418;2023-04-28T05:51:08;96605.88;;;12.81;50.80
50977;BME280;36992;48.200;12.418;2023-04-28T05:53:34;96603.66;;;12.83;50.52
50977;BME280;36992;48.200;12.418;2023-04-28T05:56:01;96612.25;;;12.85;49.26
50977;BME280;36992;48.200;12.418;2023-04-28T05:58:29;96612.94;;;12.91;49.74
50977;BME280;36992;48.200;12.418;2023-04-28T06:00:55;96604.81;;;12.91;51.02
50977;BME280;36992;48.200;12.418;2023-04-28T06:03:22;96591.78;;;12.93;50.59
50977;BME280;36992;48.200;12.418;2023-04-28T06:05:48;96594.19;;;12.94;50.13
50977;BME280;36992;48.200;12.418;2023-04-28T06:08:15;96597.69;;;12.95;50.83
50977;BME280;36992;48.200;12.418;2023-04-28T06:10:41;96591.16;;;12.96;49.84
50977;BME280;36992;48.200;12.418;2023-04-28T06:13:08;96603.56;;;12.97;50.59
50977;BME280;36992;48.200;12.418;2023-04-28T06:15:36;96600.25;;;13.00;49.83
50977;BME280;36992;48.200;12.418;2023-04-28T06:18:02;96605.97;;;12.99;50.77
50977;BME280;36992;48.200;12.418;2023-04-28T06:20:30;96595.94;;;12.99;50.81
50977;BME280;36992;48.200;12.418;2023-04-28T06:22:56;96595.94;;;12.99;50.32
50977;BME280;36992;48.200;12.418;2023-04-28T06:25:23;96602.47;;;12.98;50.17
50977;BME280;36992;48.200;12.418;2023-04-28T06:27:49;96596.25;;;12.98;49.66
50977;BME280;36992;48.200;12.418;2023-04-28T06:30:16;96595.47;;;12.97;50.38
50977;BME280;36992;48.200;12.418;2023-04-28T06:32:45;96600.25;;;13.00;50.66
50977;BME280;36992;48.200;12.418;2023-04-28T06:35:12;96604.06;;;12.99;49.91
50977;BME280;36992;48.200;12.418;2023-04-28T06:37:38;96601.34;;;12.99;49.95
50977;BME280;36992;48.200;12.418;2023-04-28T06:40:06;96598.34;;;13.01;50.85
50977;BME280;36992;48.200;12.418;2023-04-28T06:42:33;96594.53;;;13.02;51.26
50977;BME280;36992;48.200;12.418;2023-04-28T06:45:00;96596.13;;;13.03;51.29
50977;BME280;36992;48.200;12.418;2023-04-28T06:47:26;96592.31;;;13.04;52.26
50977;BME280;36992;48.200;12.418;2023-04-28T06:49:54;96592.50;;;13.07;50.29
50977;BME280;36992;48.200;12.418;2023-04-28T06:52:21;96588.50;;;13.05;50.70
50977;BME280;36992;48.200;12.418;2023-04-28T06:54:48;96594.09;;;13.08;51.64
50977;BME280;36992;48.200;12.418;2023-04-28T06:57:15;96598.69;;;13.08;51.07
50977;BME280;36992;48.200;12.418;2023-04-28T06:59:42;96592.50;;;13.07;51.16
50977;BME280;36992;48.200;12.418;2023-04-28T07:02:10;96595.22;;;13.07;51.08
50977;BME280;36992;48.200;12.418;2023-04-28T07:04:36;96593.28;;;13.08;50.57
50977;BME280;36992;48.200;12.418;2023-04-28T07:07:04;96587.28;;;13.11;50.58
50977;BME280;36992;48.200;12.418;2023-04-28T07:09:32;96589.16;;;13.11;51.51
50977;BME280;36992;48.200;12.418;2023-04-28T07:11:59;96589.63;;;13.13;52.48
50977;BME280;36992;48.200;12.418;2023-04-28T07:14:25;96584.22;;;13.13;50.94
50977;BME280;36992;48.200;12.418;2023-04-28T07:16:51;96587.44;;;13.15;51.06
50977;BME280;36992;48.200;12.418;2023-04-28T07:19:18;96586.31;;;13.16;51.42
50977;BME280;36992;48.200;12.418;2023-04-28T07:21:44;96597.63;;;13.18;51.92
50977;BME280;36992;48.200;12.418;2023-04-28T07:24:12;96602.41;;;13.21;51.02
50977;BME280;36992;48.200;12.418;2023-04-28T07:26:39;96604.31;;;13.20;52.13
50977;BME280;36992;48.200;12.418;2023-04-28T07:29:05;96608.63;;;13.21;52.83
50977;BME280;36992;48.200;12.418;2023-04-28T07:31:33;96611.00;;;13.23;53.23
50977;BME280;36992;48.200;12.418;2023-04-28T07:33:59;96618.00;;;13.24;53.49
50977;BME280;36992;48.200;12.418;2023-04-28T07:36:26;96616.41;;;13.23;53.83
50977;BME280;36992;48.200;12.418;2023-04-28T07:38:53;96611.81;;;13.24;54.16
50977;BME280;36992;48.200;12.418;2023-04-28T07:41:20;96612.59;;;13.24;54.32
50977;BME280;36992;48.200;12.418;2023-04-28T07:43:48;96611.00;;;13.23;53.47
50977;BME280;36992;48.200;12.418;2023-04-28T07:46:14;96623.41;;;13.24;54.39
50977;BME280;36992;48.200;12.418;2023-04-28T07:48:41;96620.72;;;13.24;54.13
50977;BME280;36992;48.200;12.418;2023-04-28T07:51:07;96619.13;;;13.23;53.99
50977;BME280;36992;48.200;12.418;2023-04-28T07:53:34;96618.81;;;13.25;53.46
50977;BME280;36992;48.200;12.418;2023-04-28T07:56:01;96619.59;;;13.25;53.82
50977;BME280;36992;48.200;12.418;2023-04-28T07:58:30;96629.81;;;13.28;53.61
50977;BME280;36992;48.200;12.418;2023-04-28T08:00:56;96628.22;;;13.27;54.42
50977;BME280;36992;48.200;12.418;2023-04-28T08:03:22;96628.22;;;13.27;54.17
50977;BME280;36992;48.200;12.418;2023-04-28T08:05:49;96635.22;;;13.28;54.25
50977;BME280;36992;48.200;12.418;2023-04-28T08:08:15;96635.22;;;13.28;53.94
50977;BME280;36992;48.200;12.418;2023-04-28T08:10:42;96635.69;;;13.30;54.51
50977;BME280;36992;48.200;12.418;2023-04-28T08:13:09;96641.91;;;13.31;53.45
50977;BME280;36992;48.200;12.418;2023-04-28T08:15:37;96642.09;;;13.34;54.01
50977;BME280;36992;48.200;12.418;2023-04-28T08:18:03;96647.50;;;13.34;55.05
50977;BME280;36992;48.200;12.418;2023-04-28T08:20:30;96650.69;;;13.36;54.49
50977;BME280;36992;48.200;12.418;2023-04-28T08:22:56;96648.47;;;13.39;53.72
50977;BME280;36992;48.200;12.418;2023-04-28T08:25:23;96647.84;;;13.42;54.77
50977;BME280;36992;48.200;12.418;2023-04-28T08:27:50;96645.63;;;13.44;54.92
50977;BME280;36992;48.200;12.418;2023-04-28T08:30:16;96642.34;;;13.47;54.12
50977;BME280;36992;48.200;12.418;2023-04-28T08:32:44;96644.91;;;13.52;54.85
50977;BME280;36992;48.200;12.418;2023-04-28T08:35:11;96645.69;;;13.53;54.92
50977;BME280;36992;48.200;12.418;2023-04-28T08:37:39;96645.38;;;13.54;54.48
50977;BME280;36992;48.200;12.418;2023-04-28T08:40:06;96642.38;;;13.56;55.36
50977;BME280;36992;48.200;12.418;2023-04-28T08:42:34;96637.44;;;13.58;55.08
50977;BME280;36992;48.200;12.418;2023-04-28T08:45:02;96634.41;;;13.59;54.64
50977;BME280;36992;48.200;12.418;2023-04-28T08:47:33;96620.75;;;13.65;53.48
50977;BME280;36992;48.200;12.418;2023-04-28T08:50:04;96619.31;;;13.67;54.01
50977;BME280;36992;48.200;12.418;2023-04-28T08:52:32;96616.91;;;13.66;56.84
50977;BME280;36992;48.200;12.418;2023-04-28T08:55:00;96609.75;;;13.70;57.13
50977;BME280;36992;48.200;12.418;2023-04-28T08:57:29;96608.00;;;13.74;55.10
50977;BME280;36992;48.200;12.418;2023-04-28T08:59:59;96606.44;;;13.73;55.75
50977;BME280;36992;48.200;12.418;2023-04-28T09:02:26;96604.19;;;13.75;54.43
50977;BME280;36992;48.200;12.418;2023-04-28T09:04:52;96609.00;;;13.78;55.51
50977;BME280;36992;48.200;12.418;2023-04-28T09:07:20;96601.03;;;13.82;55.97
50977;BME280;36992;48.200;12.418;2023-04-28T09:09:47;96602.63;;;13.83;55.39
50977;BME280;36992;48.200;12.418;2023-04-28T09:12:13;96598.50;;;13.85;57.80
50977;BME280;36992;48.200;12.418;2023-04-28T09:14:40;96596.25;;;13.87;58.40
50977;BME280;36992;48.200;12.418;2023-04-28T09:17:10;96594.22;;;13.93;56.30
50977;BME280;36992;48.200;12.418;2023-04-28T09:19:38;96586.38;;;13.92;57.54
50977;BME280;36992;48.200;12.418;2023-04-28T09:22:07;96592.28;;;13.94;58.15
50977;BME280;36992;48.200;12.418;2023-04-28T09:24:36;96583.22;;;13.98;56.84
50977;BME280;36992;48.200;12.418;2023-04-28T09:27:05;96576.53;;;13.96;58.53
50977;BME280;36992;48.200;12.418;2023-04-28T09:29:35;96578.13;;;13.97;58.94
50977;BME280;36992;48.200;12.418;2023-04-28T09:32:12;96579.56;;;14.03;57.12
50977;BME280;36992;48.200;12.418;2023-04-28T09:34:44;96575.25;;;14.02;56.68
50977;BME280;36992;48.200;12.418;2023-04-28T09:37:14;96573.50;;;14.06;58.50
50977;BME280;36992;48.200;12.418;2023-04-28T09:39:44;96574.28;;;14.07;58.58
50977;BME280;36992;48.200;12.418;2023-04-28T09:42:29;96567.28;;;14.14;56.75
50977;BME280;36992;48.200;12.418;2023-04-28T09:44:56;96564.44;;;14.11;59.26
50977;BME280;36992;48.200;12.418;2023-04-28T09:47:23;96569.19;;;14.14;59.19
50977;BME280;36992;48.200;12.418;2023-04-28T09:49:52;96561.22;;;14.18;58.83
50977;BME280;36992;48.200;12.418;2023-04-28T09:52:20;96563.94;;;14.18;59.43
50977;BME280;36992;48.200;12.418;2023-04-28T09:54:49;96556.78;;;14.22;58.86
50977;BME280;36992;48.200;12.418;2023-04-28T09:57:17;96560.25;;;14.22;59.69
50977;BME280;36992;48.200;12.418;2023-04-28T09:59:46;96560.09;;;14.27;59.44
50977;BME280;36992;48.200;12.418;2023-04-28T10:02:13;96550.06;;;14.28;59.93
50977;BME280;36992;48.200;12.418;2023-04-28T10:04:41;96553.25;;;14.30;59.74
50977;BME280;36992;48.200;12.418;2023-04-28T10:07:08;96554.53;;;14.33;60.37
50977;BME280;36992;48.200;12.418;2023-04-28T10:09:36;96555.00;;;14.35;59.22
50977;BME280;36992;48.200;12.418;2023-04-28T10:12:05;96552.94;;;14.40;59.52
50977;BME280;36992;48.200;12.418;2023-04-28T10:14:33;96556.75;;;14.39;60.10
50977;BME280;36992;48.200;12.418;2023-04-28T10:17:00;96553.72;;;14.41;60.37
50977;BME280;36992;48.200;12.418;2023-04-28T10:19:27;96540.66;;;14.43;60.36
50977;BME280;36992;48.200;12.418;2023-04-28T10:22:03;96554.81;;;14.49;59.22
50977;BME280;36992;48.200;12.418;2023-04-28T10:24:47;96542.53;;;14.51;58.66
50977;BME280;36992;48.200;12.418;2023-04-28T10:27:18;96544.44;;;14.51;60.82
50977;BME280;36992;48.200;12.418;2023-04-28T10:29:45;96545.56;;;14.50;60.73
50977;BME280;36992;48.200;12.418;2023-04-28T10:32:30;96540.44;;;14.57;57.97
50977;BME280;36992;48.200;12.418;2023-04-28T10:38:04;96536.66;;;14.58;59.85
50977;BME280;36992;48.200;12.418;2023-04-28T10:40:32;96533.44;;;14.56;61.37
50977;BME280;36992;48.200;12.418;2023-04-28T10:43:01;96528.97;;;14.60;61.21
50977;BME280;36992;48.200;12.418;2023-04-28T10:46:00;96522.25;;;14.66;58.87
50977;BME280;36992;48.200;12.418;2023-04-28T10:51:31;96516.38;;;14.64;60.85
50977;BME280;36992;48.200;12.418;2023-04-28T10:54:14;96524.00;;;14.71;59.55
50977;BME280;36992;48.200;12.418;2023-04-28T10:59:43;96524.81;;;14.72;59.76
50977;BME280;36992;48.200;12.418;2023-04-28T11:05:17;96518.88;;;14.69;59.59
50977;BME280;36992;48.200;12.418;2023-04-28T11:11:14;96520.34;;;14.76;58.55
50977;BME280;36992;48.200;12.418;2023-04-28T11:13:41;96515.72;;;14.67;59.98
50977;BME280;36992;48.200;12.418;2023-04-28T11:16:09;96521.59;;;14.69;59.62
50977;BME280;36992;48.200;12.418;2023-04-28T11:18:54;96521.75;;;14.73;59.17
50977;BME280;36992;48.200;12.418;2023-04-28T11:21:21;96522.72;;;14.68;60.95
50977;BME280;36992;48.200;12.418;2023-04-28T11:23:49;96521.59;;;14.69;60.42
50977;BME280;36992;48.200;12.418;2023-04-28T11:26:16;96524.00;;;14.71;60.88
50977;BME280;36992;48.200;12.418;2023-04-28T11:28:48;96521.47;;;14.75;59.16
50977;BME280;36992;48.200;12.418;2023-04-28T11:31:17;96524.16;;;14.75;59.75
50977;BME280;36992;48.200;12.418;2023-04-28T11:33:47;96515.25;;;14.74;60.14
50977;BME280;36992;48.200;12.418;2023-04-28T11:36:24;96509.63;;;14.79;59.32
50977;BME280;36992;48.200;12.418;2023-04-28T11:38:52;96511.09;;;14.77;60.41
50977;BME280;36992;48.200;12.418;2023-04-28T11:41:19;96511.56;;;14.79;61.53
50977;BME280;36992;48.200;12.418;2023-04-28T11:43:45;96512.34;;;14.79;60.99
50977;BME280;36992;48.200;12.418;2023-04-28T11:46:17;96515.69;;;14.85;59.93
50977;BME280;36992;48.200;12.418;2023-04-28T11:48:44;96510.91;;;14.82;60.84
50977;BME280;36992;48.200;12.418;2023-04-28T11:51:28;96516.66;;;14.89;59.07
50977;BME280;36992;48.200;12.418;2023-04-28T11:53:55;96514.88;;;14.84;59.53
50977;BME280;36992;48.200;12.418;2023-04-28T11:56:22;96516.81;;;14.84;60.69
50977;BME280;36992;48.200;12.418;2023-04-28T11:58:59;96518.22;;;14.90;59.37
50977;BME280;36992;48.200;12.418;2023-04-28T12:01:26;96520.44;;;14.88;59.68
50977;BME280;36992;48.200;12.418;2023-04-28T12:03:53;96522.38;;;14.88;60.28
50977;BME280;36992;48.200;12.418;2023-04-28T12:06:21;96512.31;;;14.88;60.04
50977;BME280;36992;48.200;12.418;2023-04-28T12:08:47;96509.59;;;14.88;59.92
50977;BME280;36992;48.200;12.418;2023-04-28T12:11:14;96516.66;;;14.89;59.77
50977;BME280;36992;48.200;12.418;2023-04-28T12:13:42;96518.22;;;14.90;60.80
50977;BME280;36992;48.200;12.418;2023-04-28T12:16:08;96512.47;;;14.92;60.96
50977;BME280;36992;48.200;12.418;2023-04-28T12:18:36;96510.25;;;14.94;60.40
50977;BME280;36992;48.200;12.418;2023-04-28T12:21:03;96504.00;;;14.93;61.86
50977;BME280;36992;48.200;12.418;2023-04-28T12:23:31;96507.22;;;14.95;61.02
50977;BME280;36992;48.200;12.418;2023-04-28T12:25:58;96503.38;;;14.96;61.55
50977;BME280;36992;48.200;12.418;2023-04-28T12:28:35;96502.53;;;15.05;59.48
50977;BME280;36992;48.200;12.418;2023-04-28T12:31:04;96505.09;;;15.01;61.22
50977;BME280;36992;48.200;12.418;2023-04-28T12:33:31;96498.88;;;15.01;61.41
50977;BME280;36992;48.200;12.418;2023-04-28T12:36:03;96501.41;;;15.06;61.39
50977;BME280;36992;48.200;12.418;2023-04-28T12:38:31;96507.16;;;15.04;60.99
50977;BME280;36992;48.200;12.418;2023-04-28T12:40:58;96492.13;;;15.07;62.19
50977;BME280;36992;48.200;12.418;2023-04-28T12:43:25;96502.66;;;15.08;62.58
50977;BME280;36992;48.200;12.418;2023-04-28T12:45:53;96503.13;;;15.10;62.04
50977;BME280;36992;48.200;12.418;2023-04-28T12:48:20;96507.09;;;15.13;61.88
50977;BME280;36992;48.200;12.418;2023-04-28T12:50:47;96499.44;;;15.15;61.77
50977;BME280;36992;48.200;12.418;2023-04-28T12:53:15;96506.47;;;15.16;62.14
50977;BME280;36992;48.200;12.418;2023-04-28T12:55:42;96495.28;;;15.18;61.73
50977;BME280;36992;48.200;12.418;2023-04-28T12:58:09;96507.41;;;15.20;61.91
50977;BME280;36992;48.200;12.418;2023-04-28T13:00:35;96509.78;;;15.22;61.76
50977;BME280;36992;48.200;12.418;2023-04-28T13:03:02;96503.22;;;15.23;61.26
50977;BME280;36992;48.200;12.418;2023-04-28T13:05:28;96502.91;;;15.24;61.23
50977;BME280;36992;48.200;12.418;2023-04-28T13:07:56;96493.63;;;15.26;61.30